sensor_id;sensor_type;location;lat;lon;timestamp;temperature;humidity
35463;DHT22;21578;47.892;9.970;2023-04-07T00:00:56;5.20;96.60
35463;DHT22;21578;47.892;9.970;2023-04-07T00:05:44;5.20;96.60
35463;DHT22;21578;47.892;9.970;2023-04-07T00:10:31;5.20;96.60
35463;DHT22;21578;47.892;9.970;2023-04-07T00:15:18;5.20;96.60
35463;DHT22;21578;47.892;9.970;2023-04-07T00:20:06;5.20;96.60
35463;DHT22;21578;47.892;9.970;2023-04-07T00:24:54;5.20;96.60
35463;DHT22;21578;47.892;9.970;2023-04-07T00:29:41;5.20;96.60
35463;DHT22;21578;47.892;9.970;2023-04-07T00:34:31;5.20;96.60
35463;DHT22;21578;47.892;9.970;2023-04-07T00:39:18;5.20;96.60
35463;DHT22;21578;47.892;9.970;2023-04-07T00:44:06;5.20;96.60
35463;DHT22;21578;47.892;9.970;2023-04-07T00:48:53;5.20;96.60
35463;DHT22;21578;47.892;9.970;2023-04-07T00:53:40;5.20;96.60
35463;DHT22;21578;47.892;9.970;2023-04-07T00:58:27;5.10;96.60
35463;DHT22;21578;47.892;9.970;2023-04-07T01:03:18;5.10;96.60
35463;DHT22;21578;47.892;9.970;2023-04-07T01:08:11;5.00;96.60
35463;DHT22;21578;47.892;9.970;2023-04-07T01:13:06;5.10;96.60
35463;DHT22;21578;47.892;9.970;2023-04-07T01:17:59;5.00;96.60
35463;DHT22;21578;47.892;9.970;2023-04-07T01:22:53;4.90;96.60
35463;DHT22;21578;47.892;9.970;2023-04-07T01:27:46;4.90;96.60
35463;DHT22;21578;47.892;9.970;2023-04-07T01:32:36;4.80;96.60
35463;DHT22;21578;47.892;9.970;2023-04-07T01:37:26;4.80;96.60
35463;DHT22;21578;47.892;9.970;2023-04-07T01:42:14;4.90;96.60
35463;DHT22;21578;47.892;9.970;2023-04-07T01:47:02;4.80;96.60
35463;DHT22;21578;47.892;9.970;2023-04-07T01:51:52;4.90;96.60
35463;DHT22;21578;47.892;9.970;2023-04-07T01:56:39;4.90;96.60
35463;DHT22;21578;47.892;9.970;2023-04-07T02:01:26;4.80;96.60
35463;DHT22;21578;47.892;9.970;2023-04-07T02:06:18;4.80;96.60
35463;DHT22;21578;47.892;9.970;2023-04-07T02:11:08;4.70;96.60
35463;DHT22;21578;47.892;9.970;2023-04-07T02:15:57;4.70;96.60
35463;DHT22;21578;47.892;9.970;2023-04-07T02:20:44;4.70;96.60
35463;DHT22;21578;47.892;9.970;2023-04-07T02:25:32;4.80;96.60
35463;DHT22;21578;47.892;9.970;2023-04-07T02:30:20;4.80;96.60
35463;DHT22;21578;47.892;9.970;2023-04-07T02:35:07;4.80;96.60
35463;DHT22;21578;47.892;9.970;2023-04-07T02:39:54;4.80;96.60
35463;DHT22;21578;47.892;9.970;2023-04-07T02:44:41;4.70;96.60
35463;DHT22;21578;47.892;9.970;2023-04-07T02:49:29;4.70;96.60
35463;DHT22;21578;47.892;9.970;2023-04-07T02:54:16;4.60;96.60
35463;DHT22;21578;47.892;9.970;2023-04-07T02:59:03;4.60;96.60
35463;DHT22;21578;47.892;9.970;2023-04-07T03:03:50;4.60;96.60
35463;DHT22;21578;47.892;9.970;2023-04-07T03:08:38;4.60;96.60
35463;DHT22;21578;47.892;9.970;2023-04-07T03:13:25;4.70;96.60
35463;DHT22;21578;47.892;9.970;2023-04-07T03:18:14;4.70;96.60
35463;DHT22;21578;47.892;9.970;2023-04-07T03:23:01;4.70;96.60
35463;DHT22;21578;47.892;9.970;2023-04-07T03:27:49;4.70;96.60
35463;DHT22;21578;47.892;9.970;2023-04-07T03:32:36;4.60;96.60
35463;DHT22;21578;47.892;9.970;2023-04-07T03:37:23;4.60;96.60
35463;DHT22;21578;47.892;9.970;2023-04-07T03:42:10;4.60;96.60
35463;DHT22;21578;47.892;9.970;2023-04-07T03:47:00;4.60;96.60
35463;DHT22;21578;47.892;9.970;2023-04-07T03:51:47;4.60;96.60
35463;DHT22;21578;47.892;9.970;2023-04-07T03:56:34;4.60;96.60
35463;DHT22;21578;47.892;9.970;2023-04-07T04:01:21;4.60;96.60
35463;DHT22;21578;47.892;9.970;2023-04-07T04:06:10;4.70;96.60
35463;DHT22;21578;47.892;9.970;2023-04-07T04:10:57;4.60;96.60
35463;DHT22;21578;47.892;9.970;2023-04-07T04:15:44;4.60;96.60
35463;DHT22;21578;47.892;9.970;2023-04-07T04:20:31;4.60;96.60
35463;DHT22;21578;47.892;9.970;2023-04-07T04:25:19;4.60;96.60
35463;DHT22;21578;47.892;9.970;2023-04-07T04:30:07;4.60;96.60
35463;DHT22;21578;47.892;9.970;2023-04-07T04:34:54;4.60;96.60
35463;DHT22;21578;47.892;9.970;2023-04-07T04:39:41;4.50;96.60
35463;DHT22;21578;47.892;9.970;2023-04-07T04:44:29;4.60;96.60
35463;DHT22;21578;47.892;9.970;2023-04-07T04:49:16;4.60;96.60
35463;DHT22;21578;47.892;9.970;2023-04-07T04:54:03;4.60;96.60
35463;DHT22;21578;47.892;9.970;2023-04-07T04:58:50;4.60;96.60
35463;DHT22;21578;47.892;9.970;2023-04-07T05:03:39;4.60;96.60
35463;DHT22;21578;47.892;9.970;2023-04-07T05:08:26;4.60;96.60
35463;DHT22;21578;47.892;9.970;2023-04-07T05:13:13;4.60;96.60
35463;DHT22;21578;47.892;9.970;2023-04-07T05:18:00;4.70;96.60
35463;DHT22;21578;47.892;9.970;2023-04-07T05:22:48;4.70;96.60
35463;DHT22;21578;47.892;9.970;2023-04-07T05:27:35;4.70;96.60
35463;DHT22;21578;47.892;9.970;2023-04-07T05:32:22;4.70;96.60
35463;DHT22;21578;47.892;9.970;2023-04-07T05:37:09;4.80;96.60
35463;DHT22;21578;47.892;9.970;2023-04-07T05:41:57;4.80;96.60
35463;DHT22;21578;47.892;9.970;2023-04-07T05:46:44;4.80;96.60
35463;DHT22;21578;47.892;9.970;2023-04-07T05:51:31;4.80;96.60
35463;DHT22;21578;47.892;9.970;2023-04-07T05:56:18;4.80;96.60
35463;DHT22;21578;47.892;9.970;2023-04-07T06:01:07;4.90;96.60
35463;DHT22;21578;47.892;9.970;2023-04-07T06:05:54;5.00;96.60
35463;DHT22;21578;47.892;9.970;2023-04-07T06:10:41;5.00;96.60
35463;DHT22;21578;47.892;9.970;2023-04-07T06:15:28;5.10;96.60
35463;DHT22;21578;47.892;9.970;2023-04-07T06:20:17;5.20;96.60
35463;DHT22;21578;47.892;9.970;2023-04-07T06:25:06;5.30;96.50
35463;DHT22;21578;47.892;9.970;2023-04-07T06:29:54;5.50;94.40
35463;DHT22;21578;47.892;9.970;2023-04-07T06:34:41;5.60;93.50
35463;DHT22;21578;47.892;9.970;2023-04-07T06:39:30;5.70;93.00
35463;DHT22;21578;47.892;9.970;2023-04-07T06:44:17;5.80;93.00
35463;DHT22;21578;47.892;9.970;2023-04-07T06:49:04;5.90;93.00
35463;DHT22;21578;47.892;9.970;2023-04-07T06:53:51;6.10;91.30
35463;DHT22;21578;47.892;9.970;2023-04-07T06:58:39;6.30;90.10
35463;DHT22;21578;47.892;9.970;2023-04-07T07:03:26;6.30;90.50
35463;DHT22;21578;47.892;9.970;2023-04-07T07:08:13;6.50;88.10
35463;DHT22;21578;47.892;9.970;2023-04-07T07:13:00;6.60;88.70
35463;DHT22;21578;47.892;9.970;2023-04-07T07:17:49;6.80;88.40
35463;DHT22;21578;47.892;9.970;2023-04-07T07:22:36;6.90;88.40
35463;DHT22;21578;47.892;9.970;2023-04-07T07:27:23;7.10;88.10
35463;DHT22;21578;47.892;9.970;2023-04-07T07:32:10;7.20;87.50
35463;DHT22;21578;47.892;9.970;2023-04-07T07:36:58;7.20;87.30
35463;DHT22;21578;47.892;9.970;2023-04-07T07:41:45;7.30;85.90
35463;DHT22;21578;47.892;9.970;2023-04-07T07:46:32;7.40;85.50
35463;DHT22;21578;47.892;9.970;2023-04-07T07:51:19;7.50;85.80
35463;DHT22;21578;47.892;9.970;2023-04-07T07:56:07;7.50;85.60
35463;DHT22;21578;47.892;9.970;2023-04-07T08:00:54;7.50;86.20
35463;DHT22;21578;47.892;9.970;2023-04-07T08:05:41;7.60;86.70
35463;DHT22;21578;47.892;9.970;2023-04-07T08:10:28;7.70;86.40
35463;DHT22;21578;47.892;9.970;2023-04-07T08:15:17;7.70;84.80
35463;DHT22;21578;47.892;9.970;2023-04-07T08:20:05;7.80;86.10
35463;DHT22;21578;47.892;9.970;2023-04-07T08:24:52;8.00;86.50
35463;DHT22;21578;47.892;9.970;2023-04-07T08:29:39;8.20;84.90
35463;DHT22;21578;47.892;9.970;2023-04-07T08:34:27;8.40;84.50
35463;DHT22;21578;47.892;9.970;2023-04-07T08:39:14;8.50;84.20
35463;DHT22;21578;47.892;9.970;2023-04-07T08:44:01;8.70;84.60
35463;DHT22;21578;47.892;9.970;2023-04-07T08:48:51;8.80;80.80
35463;DHT22;21578;47.892;9.970;2023-04-07T08:53:45;9.00;82.50
35463;DHT22;21578;47.892;9.970;2023-04-07T08:58:35;9.10;82.90
35463;DHT22;21578;47.892;9.970;2023-04-07T09:03:22;9.10;81.10
35463;DHT22;21578;47.892;9.970;2023-04-07T09:08:10;9.10;82.60
35463;DHT22;21578;47.892;9.970;2023-04-07T09:13:00;9.30;82.20
35463;DHT22;21578;47.892;9.970;2023-04-07T09:17:48;9.40;81.20
35463;DHT22;21578;47.892;9.970;2023-04-07T09:22:39;9.50;82.20
35463;DHT22;21578;47.892;9.970;2023-04-07T09:27:26;9.60;81.50
35463;DHT22;21578;47.892;9.970;2023-04-07T09:32:34;9.60;81.80
35463;DHT22;21578;47.892;9.970;2023-04-07T09:37:23;9.30;81.60
35463;DHT22;21578;47.892;9.970;2023-04-07T09:42:10;9.40;81.20
35463;DHT22;21578;47.892;9.970;2023-04-07T09:46:57;9.70;81.40
35463;DHT22;21578;47.892;9.970;2023-04-07T09:51:54;10.10;80.40
35463;DHT22;21578;47.892;9.970;2023-04-07T09:56:41;10.40;76.90
35463;DHT22;21578;47.892;9.970;2023-04-07T10:01:28;10.30;79.00
35463;DHT22;21578;47.892;9.970;2023-04-07T10:06:15;10.00;79.90
35463;DHT22;21578;47.892;9.970;2023-04-07T10:11:04;9.80;80.80
35463;DHT22;21578;47.892;9.970;2023-04-07T10:15:51;9.60;80.60
35463;DHT22;21578;47.892;9.970;2023-04-07T10:20:39;9.60;80.30
35463;DHT22;21578;47.892;9.970;2023-04-07T10:25:27;9.70;79.90
35463;DHT22;21578;47.892;9.970;2023-04-07T10:30:17;9.60;79.60
35463;DHT22;21578;47.892;9.970;2023-04-07T10:35:06;9.70;79.00
35463;DHT22;21578;47.892;9.970;2023-04-07T10:40:28;9.80;79.20
35463;DHT22;21578;47.892;9.970;2023-04-07T10:45:16;9.70;79.00
35463;DHT22;21578;47.892;9.970;2023-04-07T10:50:25;9.60;82.80
35463;DHT22;21578;47.892;9.970;2023-04-07T10:55:32;9.50;83.60
35463;DHT22;21578;47.892;9.970;2023-04-07T11:00:22;9.40;84.70
35463;DHT22;21578;47.892;9.970;2023-04-07T11:05:19;9.30;86.50
35463;DHT22;21578;47.892;9.970;2023-04-07T13:10:29;11.80;67.80
35463;DHT22;21578;47.892;9.970;2023-04-07T13:15:16;12.10;67.40
35463;DHT22;21578;47.892;9.970;2023-04-07T13:20:04;12.50;64.20
35463;DHT22;21578;47.892;9.970;2023-04-07T13:24:52;12.40;60.30
35463;DHT22;21578;47.892;9.970;2023-04-07T13:29:40;12.10;63.70
35463;DHT22;21578;47.892;9.970;2023-04-07T13:34:27;12.20;62.80
35463;DHT22;21578;47.892;9.970;2023-04-07T13:39:14;12.40;69.70
35463;DHT22;21578;47.892;9.970;2023-04-07T13:44:01;12.40;70.70
35463;DHT22;21578;47.892;9.970;2023-04-07T13:48:50;12.10;69.60
35463;DHT22;21578;47.892;9.970;2023-04-07T13:53:37;12.00;67.10
35463;DHT22;21578;47.892;9.970;2023-04-07T13:58:24;11.90;71.50
35463;DHT22;21578;47.892;9.970;2023-04-07T14:03:11;11.60;76.50
35463;DHT22;21578;47.892;9.970;2023-04-07T14:07:59;11.20;79.30
35463;DHT22;21578;47.892;9.970;2023-04-07T14:12:46;11.00;82.10
35463;DHT22;21578;47.892;9.970;2023-04-07T14:17:33;10.90;81.70
35463;DHT22;21578;47.892;9.970;2023-04-07T14:22:21;10.80;83.20
35463;DHT22;21578;47.892;9.970;2023-04-07T14:27:10;10.60;81.70
35463;DHT22;21578;47.892;9.970;2023-04-07T14:31:57;10.60;82.50
35463;DHT22;21578;47.892;9.970;2023-04-07T14:36:52;10.60;82.80
35463;DHT22;21578;47.892;9.970;2023-04-07T14:41:40;10.50;83.80
35463;DHT22;21578;47.892;9.970;2023-04-07T14:46:28;10.70;83.50
35463;DHT22;21578;47.892;9.970;2023-04-07T14:51:15;10.60;82.00
35463;DHT22;21578;47.892;9.970;2023-04-07T14:56:03;10.50;81.60
35463;DHT22;21578;47.892;9.970;2023-04-07T15:00:50;10.40;81.90
35463;DHT22;21578;47.892;9.970;2023-04-07T15:05:38;10.40;82.00
35463;DHT22;21578;47.892;9.970;2023-04-07T15:10:25;10.30;86.50
35463;DHT22;21578;47.892;9.970;2023-04-07T15:15:12;10.10;89.20
35463;DHT22;21578;47.892;9.970;2023-04-07T15:20:03;10.10;90.10
35463;DHT22;21578;47.892;9.970;2023-04-07T15:24:57;9.70;89.90
35463;DHT22;21578;47.892;9.970;2023-04-07T15:29:46;9.30;91.30
35463;DHT22;21578;47.892;9.970;2023-04-07T15:34:40;9.20;92.00
35463;DHT22;21578;47.892;9.970;2023-04-07T15:39:28;9.30;91.10
35463;DHT22;21578;47.892;9.970;2023-04-07T15:44:20;9.00;89.90
35463;DHT22;21578;47.892;9.970;2023-04-07T15:49:13;8.80;89.60
35463;DHT22;21578;47.892;9.970;2023-04-07T15:54:22;8.80;90.70
35463;DHT22;21578;47.892;9.970;2023-04-07T15:59:13;9.00;91.00
35463;DHT22;21578;47.892;9.970;2023-04-07T16:04:06;9.10;92.00
35463;DHT22;21578;47.892;9.970;2023-04-07T16:09:01;9.20;90.80
35463;DHT22;21578;47.892;9.970;2023-04-07T16:14:09;9.20;90.00
35463;DHT22;21578;47.892;9.970;2023-04-07T16:18:58;9.10;90.70
35463;DHT22;21578;47.892;9.970;2023-04-07T16:23:47;9.20;90.70
35463;DHT22;21578;47.892;9.970;2023-04-07T16:28:36;9.30;90.20
35463;DHT22;21578;47.892;9.970;2023-04-07T16:33:29;9.20;90.60
35463;DHT22;21578;47.892;9.970;2023-04-07T16:38:16;9.20;90.90
35463;DHT22;21578;47.892;9.970;2023-04-07T16:43:05;9.10;91.50
35463;DHT22;21578;47.892;9.970;2023-04-07T16:47:53;9.10;92.00
35463;DHT22;21578;47.892;9.970;2023-04-07T16:52:40;9.00;91.70
35463;DHT22;21578;47.892;9.970;2023-04-07T17:14:27;8.60;95.30
35463;DHT22;21578;47.892;9.970;2023-04-07T17:19:14;8.10;93.90
35463;DHT22;21578;47.892;9.970;2023-04-07T17:24:01;8.00;95.70
35463;DHT22;21578;47.892;9.970;2023-04-07T17:28:48;7.80;96.60
35463;DHT22;21578;47.892;9.970;2023-04-07T17:33:36;7.90;96.60
35463;DHT22;21578;47.892;9.970;2023-04-07T17:38:23;7.80;96.40
35463;DHT22;21578;47.892;9.970;2023-04-07T17:43:10;7.80;95.80
35463;DHT22;21578;47.892;9.970;2023-04-07T17:47:58;7.80;95.80
35463;DHT22;21578;47.892;9.970;2023-04-07T17:52:46;7.80;94.80
35463;DHT22;21578;47.892;9.970;2023-04-07T17:57:35;7.90;94.40
35463;DHT22;21578;47.892;9.970;2023-04-07T18:02:21;7.80;94.60
35463;DHT22;21578;47.892;9.970;2023-04-07T18:07:08;7.80;94.90
35463;DHT22;21578;47.892;9.970;2023-04-07T18:12:00;7.80;95.50
35463;DHT22;21578;47.892;9.970;2023-04-07T18:16:47;7.70;95.80
35463;DHT22;21578;47.892;9.970;2023-04-07T18:21:34;7.70;96.60
35463;DHT22;21578;47.892;9.970;2023-04-07T18:26:21;7.70;96.60
35463;DHT22;21578;47.892;9.970;2023-04-07T18:31:09;7.70;96.50
35463;DHT22;21578;47.892;9.970;2023-04-07T18:35:56;7.80;96.60
35463;DHT22;21578;47.892;9.970;2023-04-07T18:40:43;7.70;96.60
35463;DHT22;21578;47.892;9.970;2023-04-07T18:45:30;7.50;96.60
35463;DHT22;21578;47.892;9.970;2023-04-07T18:50:22;7.50;96.60
35463;DHT22;21578;47.892;9.970;2023-04-07T18:55:09;7.40;96.60
35463;DHT22;21578;47.892;9.970;2023-04-07T18:59:56;7.30;96.60
35463;DHT22;21578;47.892;9.970;2023-04-07T19:04:43;7.30;96.60
35463;DHT22;21578;47.892;9.970;2023-04-07T19:09:31;7.20;96.60
35463;DHT22;21578;47.892;9.970;2023-04-07T19:14:18;7.10;96.60
35463;DHT22;21578;47.892;9.970;2023-04-07T19:19:05;7.00;96.60
35463;DHT22;21578;47.892;9.970;2023-04-07T19:23:54;6.90;96.60
35463;DHT22;21578;47.892;9.970;2023-04-07T19:28:42;6.90;96.60
35463;DHT22;21578;47.892;9.970;2023-04-07T19:33:30;6.90;96.60
35463;DHT22;21578;47.892;9.970;2023-04-07T19:38:16;6.90;96.60
35463;DHT22;21578;47.892;9.970;2023-04-07T19:43:03;7.00;96.60
35463;DHT22;21578;47.892;9.970;2023-04-07T19:47:53;6.90;96.60
35463;DHT22;21578;47.892;9.970;2023-04-07T19:52:41;6.90;96.60
35463;DHT22;21578;47.892;9.970;2023-04-07T19:57:29;6.80;96.60
35463;DHT22;21578;47.892;9.970;2023-04-07T20:02:16;6.80;96.60
35463;DHT22;21578;47.892;9.970;2023-04-07T20:07:05;6.90;96.60
35463;DHT22;21578;47.892;9.970;2023-04-07T20:11:51;6.90;96.60
35463;DHT22;21578;47.892;9.970;2023-04-07T20:16:38;6.90;96.60
35463;DHT22;21578;47.892;9.970;2023-04-07T20:21:25;6.80;96.60
35463;DHT22;21578;47.892;9.970;2023-04-07T20:26:14;6.80;96.60
35463;DHT22;21578;47.892;9.970;2023-04-07T20:31:01;6.80;96.60
35463;DHT22;21578;47.892;9.970;2023-04-07T20:35:48;6.70;96.60
35463;DHT22;21578;47.892;9.970;2023-04-07T20:40:35;6.70;96.60
35463;DHT22;21578;47.892;9.970;2023-04-07T20:45:24;6.70;96.60
35463;DHT22;21578;47.892;9.970;2023-04-07T20:50:12;6.60;96.60
35463;DHT22;21578;47.892;9.970;2023-04-07T20:54:58;6.60;96.60
35463;DHT22;21578;47.892;9.970;2023-04-07T20:59:45;6.60;96.60
35463;DHT22;21578;47.892;9.970;2023-04-07T21:04:34;6.50;96.60
35463;DHT22;21578;47.892;9.970;2023-04-07T21:09:21;6.50;96.60
35463;DHT22;21578;47.892;9.970;2023-04-07T21:14:08;6.50;96.60
35463;DHT22;21578;47.892;9.970;2023-04-07T21:18:55;6.60;96.60
35463;DHT22;21578;47.892;9.970;2023-04-07T21:23:43;6.50;96.60
35463;DHT22;21578;47.892;9.970;2023-04-07T21:28:30;6.40;96.60
35463;DHT22;21578;47.892;9.970;2023-04-07T21:33:17;6.40;96.60
35463;DHT22;21578;47.892;9.970;2023-04-07T21:38:04;6.40;96.60
35463;DHT22;21578;47.892;9.970;2023-04-07T21:42:52;6.40;96.60
35463;DHT22;21578;47.892;9.970;2023-04-07T21:47:39;6.40;96.60
35463;DHT22;21578;47.892;9.970;2023-04-07T21:52:26;6.40;96.60
35463;DHT22;21578;47.892;9.970;2023-04-07T21:57:13;6.50;96.60
35463;DHT22;21578;47.892;9.970;2023-04-07T22:02:01;6.40;96.60
35463;DHT22;21578;47.892;9.970;2023-04-07T22:06:48;6.30;96.60
35463;DHT22;21578;47.892;9.970;2023-04-07T22:11:36;6.30;96.60
35463;DHT22;21578;47.892;9.970;2023-04-07T22:16:22;6.30;96.60
35463;DHT22;21578;47.892;9.970;2023-04-07T22:21:11;6.30;96.60
35463;DHT22;21578;47.892;9.970;2023-04-07T22:25:58;6.20;96.60
35463;DHT22;21578;47.892;9.970;2023-04-07T22:30:45;6.30;96.60
35463;DHT22;21578;47.892;9.970;2023-04-07T22:35:32;6.30;96.60
35463;DHT22;21578;47.892;9.970;2023-04-07T22:40:20;6.20;96.60
35463;DHT22;21578;47.892;9.970;2023-04-07T22:45:08;6.10;96.60
35463;DHT22;21578;47.892;9.970;2023-04-07T22:49:55;6.10;96.60
35463;DHT22;21578;47.892;9.970;2023-04-07T22:54:42;6.10;96.60
35463;DHT22;21578;47.892;9.970;2023-04-07T22:59:30;6.20;96.60
35463;DHT22;21578;47.892;9.970;2023-04-07T23:04:19;6.10;96.60
35463;DHT22;21578;47.892;9.970;2023-04-07T23:09:06;6.30;96.60
35463;DHT22;21578;47.892;9.970;2023-04-07T23:13:53;6.10;96.60
35463;DHT22;21578;47.892;9.970;2023-04-07T23:18:42;6.10;96.60
35463;DHT22;21578;47.892;9.970;2023-04-07T23:23:29;6.10;96.60
35463;DHT22;21578;47.892;9.970;2023-04-07T23:28:16;6.00;96.60
35463;DHT22;21578;47.892;9.970;2023-04-07T23:33:02;6.00;96.60
35463;DHT22;21578;47.892;9.970;2023-04-07T23:37:51;6.00;96.60
35463;DHT22;21578;47.892;9.970;2023-04-07T23:42:38;6.00;96.60
35463;DHT22;21578;47.892;9.970;2023-04-07T23:47:25;6.00;96.60
35463;DHT22;21578;47.892;9.970;2023-04-07T23:52:11;6.00;96.60
35463;DHT22;21578;47.892;9.970;2023-04-07T23:57:01;6.00;96.60
